Zgierz, Poland

2:36 AM CET on January 31, 2015 (GMT +0100)
Nowe Zlotno | Change Station
CLOSE
Current Station
Personal Weather Station
Location: Lodz, Lodzkie
Elevation: 636 ft
Nearby Weather Stations
Active Advisory: Snow/Ice english:

Elev 636 ft 51.78 °N, 19.39 °E | Updated 11 minutes ago

Light Snow
Light Snow Mist
32.8 °F
Feels Like 29 °F
N
4.0
Wind Variable Wind from WSW
Gusts 10.0 mph

Today
High -- | Low -- °F
--% Chance of Precip.
Yesterday
High -- | Low -- °F
Precip. -- in
7:23 AM 4:28 PM
Waxing Gibbous, 86% visible
Pressure 28.80 in
Visibility 2.5 miles
Clouds Overcast 600 ft
Windchill 29 °F
Dew Point 32 °F
Humidity 95%
Rainfall 0.00 in
Snow Depth Not available.
UV 0.0 out of 12
Pollen Not available.
Air Quality Not available.
Flu Activity Not available.
METAR EPLL 310130Z 28006KT 4000 -SN BR OVC006 M00/M01 Q0975

More Conditions Fewer Conditions

Pressure 28.80 in
Visibility 2.5 miles
Clouds Overcast 600 ft
Windchill 29 °F
Dew Point 32 °F
Humidity 95%
Rainfall 0.00 in
Snow Depth Not available.
UV 0.0 out of 12
Pollen Not available.
Air Quality Not available.
Flu Activity Not available.
METAR EPLL 310130Z 28006KT 4000 -SN BR OVC006 M00/M01 Q0975

More Conditions Fewer Conditions

10-Day Weather Forecast

Almanac

Astronomy

Jan. 31, 2015 Rise Set
Actual Time
Civil Twilight
Nautical Twilight
Astronomical Twilight
Moon
Length of Visible Light
Length of Day
Tomorrow will be .
, % of the Moon is Illuminated

Today's Extremes

Country Highs Country Lows

Community

WunderPhotos

Upload Photos

1,791,961 photos uploaded!

WunderBlogs® & News

Nearby

Air Quality

  Air Quality AQ Index Pollutant
Not available.

Snow Depth

Station Depth Elevation

Earthquake Activity

City Distance Mag. Time & Date
Minimum magnitude displayed is 2.5.

Coastal Water Temperatures

Place Temperature

Nearby Weather Stations